Time;durP1;ratioP1;P1;durP2;ratioP2;P2;SDS_P1;SDS_P2;PMS_P1;PMS_P2;Temp;Humidity;BMP_temperature;BMP_pressure;BME280_temperature;BME280_humidity;BME280_pressure;Samples;Min_cycle;Max_cycle;Signal;HPM_P1;HPM_P2
2022/08/26 00:00:52;;;;;;;2.87;2.77;;;28.20;74.30;;;;;;4938010;29;20490;-87
2022/08/26 00:03:21;;;;;;;3.20;3.03;;;28.20;74.30;;;;;;4937978;29;20455;-87
2022/08/26 00:05:49;;;;;;;2.53;2.43;;;28.20;74.30;;;;;;4938141;29;20447;-87
2022/08/26 00:08:20;;;;;;;2.80;2.70;;;28.20;74.40;;;;;;4937946;29;20479;-87
2022/08/26 00:10:46;;;;;;;3.53;3.33;;;28.30;74.40;;;;;;4937972;29;20447;-88
2022/08/26 00:13:13;;;;;;;2.77;2.67;;;28.20;74.40;;;;;;4938019;29;20451;-87
2022/08/26 00:15:41;;;;;;;2.97;2.77;;;28.20;74.40;;;;;;4937917;29;20469;-88
2022/08/26 00:18:08;;;;;;;2.70;2.60;;;28.20;74.40;;;;;;4937521;29;20965;-87
2022/08/26 00:20:35;;;;;;;2.53;2.43;;;28.20;74.40;;;;;;4937754;29;20995;-87
2022/08/26 00:23:02;;;;;;;2.47;2.37;;;28.20;74.40;;;;;;4937685;29;20799;-87
2022/08/26 00:25:31;;;;;;;2.83;2.70;;;28.20;74.40;;;;;;4937616;29;21045;-87
2022/08/26 00:27:58;;;;;;;3.30;3.10;;;28.20;74.40;;;;;;4936923;29;20502;-87
2022/08/26 00:30:27;;;;;;;3.20;3.10;;;28.20;74.40;;;;;;4937489;29;20442;-88
2022/08/26 00:32:54;;;;;;;3.33;3.13;;;28.20;74.50;;;;;;4937344;29;20475;-87
2022/08/26 00:35:22;;;;;;;2.93;2.83;;;28.20;74.50;;;;;;4937191;29;20945;-87
2022/08/26 00:37:50;;;;;;;3.03;2.83;;;28.20;74.50;;;;;;4937488;29;20454;-87
2022/08/26 00:40:23;;;;;;;3.23;3.03;;;28.20;74.50;;;;;;4937234;29;20530;-87
2022/08/26 00:42:51;;;;;;;3.50;3.30;;;28.20;74.50;;;;;;4937357;29;20447;-87
2022/08/26 00:45:18;;;;;;;3.17;2.97;;;28.20;74.50;;;;;;4937594;29;20447;-87
2022/08/26 00:47:48;;;;;;;3.20;3.00;;;28.20;74.50;;;;;;4937216;29;20962;-87
2022/08/26 00:50:21;;;;;;;3.03;2.83;;;28.20;74.50;;;;;;4937163;29;20447;-87
2022/08/26 00:52:50;;;;;;;3.43;3.23;;;28.20;74.50;;;;;;4937520;29;20447;-87
2022/08/26 00:55:20;;;;;;;2.47;2.37;;;28.20;74.50;;;;;;4937094;29;20471;-87
2022/08/26 00:57:49;;;;;;;3.30;3.10;;;28.20;74.50;;;;;;4937048;29;20798;-87
2022/08/26 01:00:21;;;;;;;3.00;2.90;;;28.20;74.50;;;;;;4937124;29;20491;-87
2022/08/26 01:02:49;;;;;;;3.17;2.93;;;28.20;74.50;;;;;;4937081;29;20945;-87
2022/08/26 01:05:17;;;;;;;2.73;2.63;;;28.20;74.50;;;;;;4937377;29;20791;-87
2022/08/26 01:07:44;;;;;;;3.47;3.27;;;28.20;74.50;;;;;;4936857;29;20548;-87
2022/08/26 01:10:15;;;;;;;2.90;2.80;;;28.20;74.60;;;;;;4936781;29;20447;-87
2022/08/26 01:12:46;;;;;;;3.00;2.80;;;28.20;74.50;;;;;;4937248;29;20455;-88
2022/08/26 01:15:20;;;;;;;2.77;2.60;;;28.20;74.60;;;;;;4937267;29;20451;-87
2022/08/26 01:17:48;;;;;;;2.93;2.73;;;28.20;74.50;;;;;;4936760;29;20450;-88
2022/08/26 01:20:27;;;;;;;3.00;2.80;;;28.20;74.60;;;;;;4936653;29;20612;-88
2022/08/26 01:22:59;;;;;;;3.17;2.97;;;28.20;74.50;;;;;;4936622;29;20443;-87
2022/08/26 01:25:29;;;;;;;2.90;2.80;;;28.20;74.50;;;;;;4936864;29;20485;-87
2022/08/26 01:27:58;;;;;;;2.90;2.80;;;28.20;74.50;;;;;;4936620;29;20541;-86
2022/08/26 01:30:26;;;;;;;3.00;2.90;;;28.20;74.50;;;;;;4937003;29;20538;-87
2022/08/26 01:32:55;;;;;;;3.57;3.37;;;28.20;74.60;;;;;;4936333;29;21024;-86
2022/08/26 01:35:22;;;;;;;3.40;3.20;;;28.20;74.50;;;;;;4936922;29;20447;-86
2022/08/26 01:37:53;;;;;;;2.80;2.60;;;28.20;74.60;;;;;;4936287;29;20929;-86
2022/08/26 01:40:25;;;;;;;3.67;3.47;;;28.20;74.50;;;;;;4936715;29;20487;-87
2022/08/26 01:42:53;;;;;;;3.43;3.23;;;28.20;74.50;;;;;;4936755;29;20450;-87
2022/08/26 01:45:24;;;;;;;3.77;3.57;;;28.20;74.50;;;;;;4936513;29;20447;-87
2022/08/26 01:47:53;;;;;;;2.40;2.30;;;28.20;74.50;;;;;;4936293;29;20443;-87
2022/08/26 01:50:25;;;;;;;3.03;2.90;;;28.20;74.50;;;;;;4936338;29;20458;-87
2022/08/26 01:52:53;;;;;;;2.73;2.63;;;28.20;74.50;;;;;;4936221;29;20451;-86
2022/08/26 01:55:23;;;;;;;2.70;2.60;;;28.20;74.50;;;;;;4936294;29;20469;-87
2022/08/26 01:57:53;;;;;;;3.20;3.00;;;28.20;75.30;;;;;;4936456;29;20547;-86
2022/08/26 02:00:22;;;;;;;3.30;3.10;;;28.20;74.40;;;;;;4936515;29;20485;-86
2022/08/26 02:03:15;;;;;;;3.10;3.00;;;28.20;74.40;;;;;;4936466;29;20593;-86
2022/08/26 02:05:40;;;;;;;3.53;3.33;;;28.20;74.40;;;;;;4936106;29;20443;-87
2022/08/26 02:08:07;;;;;;;3.33;3.13;;;28.20;74.40;;;;;;4936479;29;20443;-87
2022/08/26 02:10:37;;;;;;;3.03;2.93;;;28.20;74.40;;;;;;4936423;29;20784;-87
2022/08/26 02:13:04;;;;;;;3.60;3.40;;;28.20;74.40;;;;;;4936377;29;20870;-87
2022/08/26 02:15:33;;;;;;;2.97;2.87;;;28.20;74.40;;;;;;4936266;29;20871;-87
2022/08/26 02:18:00;;;;;;;2.50;2.40;;;28.20;74.40;;;;;;4936077;29;20489;-86
2022/08/26 02:20:28;;;;;;;2.50;2.40;;;28.20;74.30;;;;;;4936161;29;20510;-87
2022/08/26 02:22:55;;;;;;;2.73;2.63;;;28.20;74.30;;;;;;4936307;29;20851;-87
2022/08/26 02:25:26;;;;;;;3.60;3.33;;;28.20;74.30;;;;;;4936366;29;20903;-87
2022/08/26 02:27:55;;;;;;;3.50;3.23;;;28.20;74.30;;;;;;4936404;29;20443;-87
2022/08/26 02:30:25;;;;;;;3.00;2.80;;;28.20;74.30;;;;;;4936447;29;20585;-87
2022/08/26 02:32:52;;;;;;;3.10;3.00;;;28.20;74.30;;;;;;4935959;29;20573;-86
2022/08/26 02:35:21;;;;;;;2.70;2.60;;;28.20;74.20;;;;;;4936557;29;20454;-87
2022/08/26 02:37:48;;;;;;;3.53;3.30;;;28.20;74.20;;;;;;4936105;29;20446;-87
2022/08/26 02:40:20;;;;;;;3.30;3.17;;;28.20;74.20;;;;;;4936120;29;20510;-86
2022/08/26 02:42:47;;;;;;;3.40;3.20;;;28.20;74.20;;;;;;4936200;29;20455;-87
2022/08/26 02:45:16;;;;;;;3.40;3.20;;;28.20;74.30;;;;;;4936083;29;20450;-86
2022/08/26 02:47:44;;;;;;;3.10;2.90;;;28.20;74.30;;;;;;4936083;29;20443;-87
2022/08/26 02:50:11;;;;;;;2.87;2.77;;;28.20;74.30;;;;;;4936698;29;20825;-86
2022/08/26 02:52:38;;;;;;;3.70;3.50;;;28.20;74.40;;;;;;4939413;29;20446;-87
2022/08/26 02:55:06;;;;;;;3.03;2.93;;;28.20;74.40;;;;;;4939433;29;20550;-86
2022/08/26 02:57:33;;;;;;;3.70;3.50;;;28.20;74.40;;;;;;4939189;29;20941;-87
2022/08/26 03:00:01;;;;;;;3.40;3.20;;;28.20;74.50;;;;;;4939399;29;20534;-87
2022/08/26 03:02:29;;;;;;;3.87;3.67;;;28.20;74.50;;;;;;4939422;29;20443;-87
2022/08/26 03:04:56;;;;;;;3.60;3.40;;;28.20;74.50;;;;;;4939037;29;20443;-87
2022/08/26 03:07:23;;;;;;;4.00;3.80;;;28.20;74.60;;;;;;4939236;29;20793;-86
2022/08/26 03:09:51;;;;;;;4.03;3.83;;;28.20;74.70;;;;;;4939442;29;20453;-86
2022/08/26 03:12:19;;;;;;;4.03;3.83;;;28.20;74.70;;;;;;4939633;29;20447;-87
2022/08/26 03:14:45;;;;;;;3.87;3.67;;;28.20;74.80;;;;;;4939014;29;20455;-87
2022/08/26 03:17:12;;;;;;;4.57;4.27;;;28.20;74.80;;;;;;4939026;29;20451;-87
2022/08/26 03:19:41;;;;;;;3.67;3.47;;;28.20;74.90;;;;;;4938677;29;20447;-87
2022/08/26 03:22:08;;;;;;;3.47;3.30;;;28.20;75.70;;;;;;4938924;29;20603;-87
2022/08/26 03:24:35;;;;;;;3.27;3.17;;;28.20;75.00;;;;;;4938965;29;20562;-87
2022/08/26 03:27:01;;;;;;;4.63;4.43;;;28.20;75.00;;;;;;4940181;29;20498;-87
2022/08/26 03:32:15;;;;;;;4.00;3.80;;;28.10;74.90;;;;;;4963053;29;20449;-87
2022/08/26 03:34:43;;;;;;;3.60;3.40;;;28.10;75.90;;;;;;4954755;29;20482;-87
2022/08/26 03:37:10;;;;;;;4.20;3.90;;;28.10;75.00;;;;;;4939521;29;20538;-86
2022/08/26 03:39:37;;;;;;;4.00;3.80;;;28.10;75.10;;;;;;4939048;29;20943;-87
2022/08/26 03:42:05;;;;;;;4.23;4.03;;;28.10;75.00;;;;;;4938403;29;21017;-87
2022/08/26 03:44:33;;;;;;;3.97;3.67;;;28.10;75.20;;;;;;4938742;29;20904;-88
2022/08/26 03:47:00;;;;;;;4.60;4.40;;;28.10;75.10;;;;;;4938518;29;20473;-86
2022/08/26 03:49:27;;;;;;;4.70;4.50;;;28.10;75.20;;;;;;4938231;29;20458;-87
2022/08/26 03:51:55;;;;;;;4.07;3.87;;;28.10;75.20;;;;;;4938586;29;20475;-86
2022/08/26 03:54:22;;;;;;;4.87;4.57;;;28.10;75.20;;;;;;4938522;29;20557;-87
2022/08/26 03:56:49;;;;;;;3.90;3.70;;;28.10;75.30;;;;;;4938388;29;20495;-87
2022/08/26 03:59:16;;;;;;;4.87;4.67;;;28.10;76.10;;;;;;4938383;29;20534;-87
2022/08/26 04:01:42;;;;;;;5.10;4.80;;;28.10;75.30;;;;;;4937029;29;20491;-86
2022/08/26 04:04:09;;;;;;;4.17;3.97;;;28.10;75.30;;;;;;4938198;29;20522;-86
2022/08/26 04:06:41;;;;;;;4.30;4.10;;;28.10;75.20;;;;;;4938175;29;20887;-87
2022/08/26 04:09:12;;;;;;;4.50;4.30;;;28.10;75.30;;;;;;4938195;29;20767;-87
2022/08/26 04:11:40;;;;;;;4.80;4.60;;;28.20;75.50;;;;;;4937219;29;20974;-87
2022/08/26 04:14:13;;;;;;;4.67;4.47;;;28.10;75.40;;;;;;4938045;29;20791;-87
2022/08/26 04:16:40;;;;;;;3.30;3.10;;;28.10;75.50;;;;;;4938121;29;20454;-87
2022/08/26 04:19:07;;;;;;;4.20;4.00;;;28.10;75.30;;;;;;4937730;29;20447;-87
2022/08/26 04:21:34;;;;;;;3.17;2.97;;;28.10;75.40;;;;;;4937765;29;20494;-88
2022/08/26 04:24:01;;;;;;;4.97;4.67;;;28.10;75.30;;;;;;4920848;29;20554;-87
2022/08/26 04:26:35;;;;;;;3.70;3.50;;;28.10;75.30;;;;;;4937743;29;20443;-88
2022/08/26 04:29:05;;;;;;;5.37;5.07;;;28.10;75.30;;;;;;4937648;29;20458;-86
2022/08/26 04:31:34;;;;;;;4.00;3.80;;;28.10;75.40;;;;;;4937336;29;20986;-86
2022/08/26 04:34:02;;;;;;;3.80;3.60;;;28.10;75.20;;;;;;4938029;29;20465;-86
2022/08/26 04:36:29;;;;;;;3.97;3.77;;;28.10;75.20;;;;;;4937333;29;20943;-86
2022/08/26 04:38:56;;;;;;;2.87;2.77;;;28.10;75.20;;;;;;4937348;29;20451;-86
2022/08/26 04:41:23;;;;;;;3.63;3.43;;;28.10;75.10;;;;;;4924345;29;20847;-88
2022/08/26 04:43:52;;;;;;;29.70;27.00;;;28.10;75.00;;;;;;4918595;29;20460;-88
2022/08/26 04:46:21;;;;;;;34.57;31.57;;;28.00;78.70;;;;;;4918309;29;20495;-88
2022/08/26 04:48:51;;;;;;;40.07;36.53;;;27.70;81.40;;;;;;4901540;29;20444;-87
2022/08/26 04:51:18;;;;;;;40.60;36.77;;;27.60;82.40;;;;;;4918550;29;20580;-88
2022/08/26 04:53:45;;;;;;;42.77;39.00;;;27.50;83.00;;;;;;4918284;29;20496;-88
2022/08/26 04:56:13;;;;;;;41.47;37.73;;;27.30;83.50;;;;;;4918024;29;20445;-88
2022/08/26 04:58:40;;;;;;;45.20;41.27;;;27.10;84.30;;;;;;4917900;29;20451;-88
2022/08/26 05:01:08;;;;;;;41.87;37.80;;;27.10;84.70;;;;;;4917991;29;20527;-87
2022/08/26 05:03:36;;;;;;;42.13;38.10;;;27.10;84.70;;;;;;4917860;29;20527;-87
2022/08/26 05:06:05;;;;;;;40.73;36.87;;;27.20;84.30;;;;;;4917916;29;20503;-89
2022/08/26 05:08:32;;;;;;;36.87;33.63;;;27.20;84.20;;;;;;4918087;29;20508;-85
2022/08/26 05:10:59;;;;;;;37.73;34.53;;;27.30;83.70;;;;;;4918142;29;20523;-87
2022/08/26 05:13:27;;;;;;;37.43;34.23;;;27.30;83.80;;;;;;4917263;29;21045;-86
2022/08/26 05:15:54;;;;;;;33.80;30.67;;;27.30;83.90;;;;;;4917874;29;20538;-87
2022/08/26 05:18:24;;;;;;;35.77;32.67;;;27.40;83.80;;;;;;4917850;29;20451;-87
2022/08/26 05:20:53;;;;;;;33.80;30.87;;;27.40;83.70;;;;;;4917919;29;20476;-86
2022/08/26 05:23:21;;;;;;;33.57;30.57;;;27.40;83.60;;;;;;4917756;29;20463;-87
2022/08/26 05:25:49;;;;;;;33.17;30.20;;;27.40;83.70;;;;;;4919016;29;20452;-86
2022/08/26 05:28:18;;;;;;;31.03;28.30;;;27.50;83.80;;;;;;4933174;29;20450;-86
2022/08/26 05:30:45;;;;;;;33.40;30.60;;;27.50;83.60;;;;;;4936714;29;20542;-86
2022/08/26 05:33:13;;;;;;;32.17;29.37;;;27.50;83.60;;;;;;4936620;29;20455;-89
2022/08/26 05:35:43;;;;;;;33.97;31.27;;;27.50;83.70;;;;;;4937418;29;20474;-90
2022/08/26 05:38:14;;;;;;;34.70;31.60;;;27.50;83.60;;;;;;4936804;29;20490;-89
2022/08/26 06:15:10;;;;;;;12.20;11.30;;;27.90;80.60;;;;;;4807609;29;20452;-95
2022/08/26 06:17:38;;;;;;;12.23;11.43;;;27.90;80.60;;;;;;4821748;29;20464;-83
2022/08/26 06:20:05;;;;;;;10.90;10.13;;;27.90;80.30;;;;;;4821161;29;20540;-83
2022/08/26 06:28:00;;;;;;;10.37;9.73;;;27.90;79.60;;;;;;4896272;29;20567;-83
2022/08/26 06:30:27;;;;;;;9.60;9.00;;;28.00;79.60;;;;;;4920118;29;20458;-83
2022/08/26 06:32:55;;;;;;;11.20;10.40;;;28.00;79.50;;;;;;4920082;29;20479;-83
2022/08/26 06:35:22;;;;;;;10.03;9.23;;;28.00;79.40;;;;;;4932703;29;20463;-86
2022/08/26 06:37:49;;;;;;;10.80;9.97;;;28.00;79.30;;;;;;4920768;29;20450;-85
2022/08/26 06:40:16;;;;;;;9.80;9.10;;;28.00;79.20;;;;;;4923967;29;20452;-85
2022/08/26 06:42:43;;;;;;;10.20;9.53;;;28.00;79.00;;;;;;4938256;29;20857;-87
2022/08/26 06:45:10;;;;;;;9.43;8.83;;;28.00;79.00;;;;;;4920690;29;20459;-87
2022/08/26 06:47:37;;;;;;;9.13;8.63;;;28.00;79.00;;;;;;4920740;29;20535;-87
2022/08/26 06:50:06;;;;;;;8.43;7.87;;;28.00;79.00;;;;;;4920269;29;21014;-87
2022/08/26 06:52:33;;;;;;;9.87;9.17;;;28.10;78.90;;;;;;4920244;29;20455;-89
2022/08/26 06:55:00;;;;;;;8.97;8.47;;;28.10;78.90;;;;;;4920253;29;20468;-87
2022/08/26 06:57:31;;;;;;;9.27;8.77;;;28.10;78.90;;;;;;4924489;29;20452;-87
2022/08/26 06:59:58;;;;;;;8.60;8.00;;;28.10;78.80;;;;;;4938993;29;20955;-86
2022/08/26 07:02:24;;;;;;;8.70;8.20;;;28.10;78.80;;;;;;4938929;29;20498;-87
2022/08/26 07:04:51;;;;;;;8.90;8.30;;;28.10;78.70;;;;;;4939072;29;20451;-86
2022/08/26 07:07:19;;;;;;;9.57;8.40;;;28.10;78.80;;;;;;4938919;29;20551;-86
2022/08/26 07:09:46;;;;;;;8.40;7.80;;;28.10;78.70;;;;;;4938984;29;20974;-89
2022/08/26 07:12:13;;;;;;;9.10;8.43;;;28.10;78.70;;;;;;4938971;29;20451;-87
2022/08/26 07:14:40;;;;;;;9.93;9.27;;;28.10;78.70;;;;;;4939115;29;20451;-86
2022/08/26 07:17:07;;;;;;;9.23;8.53;;;28.10;78.60;;;;;;4938971;29;20444;-87
2022/08/26 07:19:34;;;;;;;9.73;9.13;;;28.10;78.60;;;;;;4939140;29;20490;-87
2022/08/26 07:22:02;;;;;;;8.97;8.37;;;28.10;78.60;;;;;;4939166;29;20475;-88
2022/08/26 07:24:31;;;;;;;9.07;8.47;;;28.10;78.60;;;;;;4938919;29;20534;-88
2022/08/26 07:26:59;;;;;;;9.63;8.87;;;28.10;78.60;;;;;;4939003;29;20526;-84
2022/08/26 07:29:27;;;;;;;8.77;8.17;;;28.10;78.60;;;;;;4938513;29;20450;-83
2022/08/26 07:31:54;;;;;;;9.30;8.70;;;28.10;78.60;;;;;;4938766;29;20485;-83
2022/08/26 07:34:22;;;;;;;8.73;8.13;;;28.10;78.60;;;;;;4938287;29;20443;-87
2022/08/26 07:36:50;;;;;;;8.77;8.27;;;28.10;78.60;;;;;;4938296;29;20459;-89
2022/08/26 07:39:17;;;;;;;8.90;8.37;;;28.10;78.60;;;;;;4938329;29;20451;-87
2022/08/26 07:41:46;;;;;;;9.17;8.57;;;28.10;78.60;;;;;;4938267;29;20498;-81
2022/08/26 07:44:13;;;;;;;8.97;8.33;;;28.10;78.60;;;;;;4938307;29;20451;-84
2022/08/26 07:46:41;;;;;;;8.93;8.33;;;28.10;78.60;;;;;;4938174;29;20540;-84
2022/08/26 07:49:08;;;;;;;8.77;8.23;;;28.10;78.70;;;;;;4946747;29;20427;-88
2022/08/26 07:51:36;;;;;;;7.90;7.30;;;28.10;78.60;;;;;;4962440;29;20458;-87
2022/08/26 07:54:03;;;;;;;8.70;8.20;;;28.10;78.50;;;;;;4956730;29;20483;-82
2022/08/26 07:56:30;;;;;;;8.87;8.27;;;28.10;78.60;;;;;;4946575;29;20487;-82
2022/08/26 07:58:58;;;;;;;8.23;7.73;;;28.10;78.60;;;;;;4937964;29;20527;-83
2022/08/26 08:01:28;;;;;;;8.10;7.60;;;28.10;78.60;;;;;;4938153;29;20447;-82
2022/08/26 08:03:55;;;;;;;7.83;7.33;;;28.10;78.60;;;;;;4937899;29;20475;-81
2022/08/26 08:06:24;;;;;;;9.10;8.40;;;28.10;78.60;;;;;;4937569;29;20530;-82
2022/08/26 08:08:52;;;;;;;8.97;8.47;;;28.10;78.60;;;;;;4938212;29;20448;-84
2022/08/26 08:11:20;;;;;;;8.53;7.93;;;28.10;78.70;;;;;;4938659;29;20545;-83
2022/08/26 08:13:47;;;;;;;9.27;8.67;;;28.10;78.70;;;;;;4937595;29;20447;-85
2022/08/26 08:16:16;;;;;;;9.57;8.87;;;28.10;78.70;;;;;;4937833;29;20438;-85
2022/08/26 08:18:44;;;;;;;8.43;7.90;;;28.10;78.70;;;;;;4937371;29;20543;-88
2022/08/26 08:21:11;;;;;;;9.30;8.50;;;28.10;78.70;;;;;;4937962;29;20884;-85
2022/08/26 08:23:38;;;;;;;8.30;7.80;;;28.10;78.70;;;;;;4937509;29;20499;-87
2022/08/26 08:26:07;;;;;;;8.50;8.00;;;28.10;78.70;;;;;;4937426;29;20495;-86
2022/08/26 08:28:34;;;;;;;8.43;7.93;;;28.10;78.70;;;;;;4937444;29;20550;-87
2022/08/26 08:31:01;;;;;;;8.67;8.00;;;28.10;78.70;;;;;;4941172;29;20485;-86
2022/08/26 08:33:30;;;;;;;8.73;8.23;;;28.10;78.70;;;;;;4956865;29;20442;-87
2022/08/26 08:35:57;;;;;;;8.63;7.97;;;28.10;78.60;;;;;;4956200;29;20446;-85
2022/08/26 08:38:24;;;;;;;7.97;7.37;;;28.10;78.60;;;;;;4956401;29;21030;-86
2022/08/26 08:40:51;;;;;;;8.30;7.80;;;28.10;78.60;;;;;;4956502;29;20537;-86
2022/08/26 08:43:30;;;;;;;8.00;7.50;;;28.10;78.60;;;;;;4956489;29;20525;-86
2022/08/26 08:46:00;;;;;;;7.70;7.30;;;28.10;78.60;;;;;;4956445;29;20560;-87
2022/08/26 08:48:31;;;;;;;8.10;7.70;;;28.10;78.70;;;;;;4955495;28;20535;-86
2022/08/26 08:51:06;;;;;;;7.40;6.90;;;28.10;78.50;;;;;;4956193;29;20452;-86
2022/08/26 08:53:36;;;;;;;8.67;8.17;;;28.10;78.60;;;;;;4956301;29;20839;-86
2022/08/26 08:56:11;;;;;;;7.90;7.40;;;28.10;78.60;;;;;;4956114;29;21016;-85
2022/08/26 08:58:50;;;;;;;7.87;7.40;;;28.10;78.60;;;;;;4956102;29;20870;-85
2022/08/26 09:01:28;;;;;;;7.57;7.07;;;28.10;79.40;;;;;;4955971;29;20489;-89
2022/08/26 09:04:19;;;;;;;7.40;6.80;;;28.10;78.50;;;;;;4946214;29;20489;-86
2022/08/26 09:06:48;;;;;;;7.40;6.90;;;28.20;78.50;;;;;;4946954;29;20458;-85
2022/08/26 09:09:23;;;;;;;7.13;6.70;;;28.10;78.50;;;;;;4955918;29;20452;-85
2022/08/26 09:11:50;;;;;;;7.57;7.17;;;28.10;78.50;;;;;;4955442;29;20460;-85
2022/08/26 09:14:17;;;;;;;8.00;7.50;;;28.10;78.50;;;;;;4955474;29;20447;-84
2022/08/26 09:16:51;;;;;;;7.00;6.63;;;28.10;78.50;;;;;;4955239;29;20538;-84
2022/08/26 09:19:27;;;;;;;6.77;6.37;;;28.10;78.40;;;;;;4955385;29;20791;-85
2022/08/26 09:21:58;;;;;;;7.20;6.80;;;28.10;78.40;;;;;;4955343;29;20446;-86
2022/08/26 09:24:26;;;;;;;6.67;6.30;;;28.10;78.40;;;;;;4955790;29;20466;-90
2022/08/26 09:26:55;;;;;;;7.20;6.80;;;28.10;78.50;;;;;;4955116;29;20883;-80
2022/08/26 09:29:24;;;;;;;6.67;6.17;;;28.10;78.40;;;;;;4954895;29;20783;-83
2022/08/26 09:31:52;;;;;;;7.10;6.67;;;28.10;78.40;;;;;;4955166;29;20470;-89
2022/08/26 09:34:23;;;;;;;7.00;6.60;;;28.10;78.40;;;;;;4955344;29;20450;-89
2022/08/26 09:36:52;;;;;;;7.23;6.80;;;28.10;78.40;;;;;;4955349;29;20505;-87
2022/08/26 09:39:32;;;;;;;5.50;5.20;;;28.10;78.40;;;;;;4955079;29;20493;-86
2022/08/26 09:42:04;;;;;;;6.87;6.47;;;28.20;78.50;;;;;;4955512;29;20457;-88
2022/08/26 09:44:32;;;;;;;7.53;6.80;;;28.10;78.30;;;;;;4955405;29;20529;-85
2022/08/26 09:47:03;;;;;;;6.50;6.20;;;28.10;79.30;;;;;;4954896;29;20484;-85
2022/08/26 09:49:34;;;;;;;6.47;6.07;;;28.10;78.40;;;;;;4955186;29;20536;-88
2022/08/26 09:52:12;;;;;;;7.40;6.90;;;28.10;78.40;;;;;;4955134;29;20505;-86
2022/08/26 09:54:41;;;;;;;6.30;5.90;;;28.10;78.30;;;;;;4954994;29;20474;-86
2022/08/26 09:57:27;;;;;;;7.70;7.10;;;28.10;78.40;;;;;;4955153;29;20474;-85
2022/08/26 09:59:54;;;;;;;6.50;5.90;;;28.20;78.30;;;;;;4957034;28;20968;-85
2022/08/26 10:02:40;;;;;;;5.80;5.50;;;28.10;78.30;;;;;;4958747;29;20577;-86
2022/08/26 10:05:17;;;;;;;6.53;6.13;;;28.10;78.40;;;;;;4959176;29;20442;-86
2022/08/26 10:07:48;;;;;;;6.23;5.77;;;28.20;78.40;;;;;;4958929;29;20941;-85
2022/08/26 10:10:21;;;;;;;6.00;5.60;;;28.10;78.30;;;;;;4958886;29;21008;-87
2022/08/26 10:12:57;;;;;;;5.80;5.50;;;28.20;78.30;;;;;;4959102;29;20456;-88
2022/08/26 10:15:26;;;;;;;6.60;6.13;;;28.20;77.90;;;;;;4959050;29;20464;-86
2022/08/26 10:18:01;;;;;;;6.53;6.10;;;28.20;77.70;;;;;;4959099;29;20812;-85
2022/08/26 10:20:34;;;;;;;5.63;5.33;;;28.20;77.40;;;;;;4958870;29;20541;-86
2022/08/26 10:23:04;;;;;;;6.63;6.13;;;28.20;77.30;;;;;;4958565;29;20492;-85
2022/08/26 10:25:33;;;;;;;6.00;5.60;;;28.00;77.00;;;;;;4958675;29;20454;-86
2022/08/26 10:28:06;;;;;;;5.30;5.00;;;28.20;77.70;;;;;;4958814;29;20552;-86
2022/08/26 10:30:40;;;;;;;5.47;5.17;;;28.20;78.00;;;;;;4958637;29;20817;-85
2022/08/26 10:33:09;;;;;;;5.77;5.43;;;28.20;78.20;;;;;;4958187;29;20453;-85
2022/08/26 10:35:44;;;;;;;6.10;5.70;;;28.10;78.20;;;;;;4958242;29;20541;-85
2022/08/26 10:38:14;;;;;;;6.17;5.80;;;28.20;78.40;;;;;;4958528;29;20805;-84
2022/08/26 10:40:50;;;;;;;5.50;5.20;;;28.10;78.30;;;;;;4958449;29;20936;-83
2022/08/26 10:43:22;;;;;;;4.80;4.60;;;28.20;78.50;;;;;;4958020;29;21008;-84
2022/08/26 10:45:51;;;;;;;5.40;5.10;;;28.20;78.40;;;;;;4958178;29;20452;-85
2022/08/26 10:48:23;;;;;;;4.83;4.53;;;28.20;78.20;;;;;;4958394;29;20442;-86
2022/08/26 10:50:52;;;;;;;5.40;5.00;;;28.20;78.10;;;;;;4958408;29;20925;-86
2022/08/26 10:53:24;;;;;;;4.97;4.60;;;28.20;78.40;;;;;;4958200;29;20553;-85
2022/08/26 10:55:59;;;;;;;4.87;4.67;;;28.20;78.60;;;;;;4958773;29;20577;-85
2022/08/26 10:58:47;;;;;;;5.33;4.97;;;28.20;78.20;;;;;;4958104;29;20573;-86
2022/08/26 11:04:22;;;;;;;5.30;5.00;;;28.20;78.20;;;;;;4957988;29;20556;-85
2022/08/26 11:07:31;;;;;;;10.10;6.70;;;28.20;78.40;;;;;;4957831;29;20454;-85
2022/08/26 11:09:59;;;;;;;35.00;14.57;;;28.20;78.10;;;;;;4957845;29;20496;-85
2022/08/26 11:12:47;;;;;;;64.37;21.00;;;28.20;79.00;;;;;;4956865;28;20486;-85
2022/08/26 11:15:58;;;;;;;55.50;18.50;;;28.20;78.00;;;;;;4957900;29;20452;-84
2022/08/26 11:18:45;;;;;;;30.23;14.27;;;28.20;78.00;;;;;;4957492;29;20454;-84
2022/08/26 11:21:49;;;;;;;34.40;14.60;;;28.20;77.90;;;;;;4957616;29;20446;-84
2022/08/26 11:24:56;;;;;;;33.37;11.87;;;28.20;78.40;;;;;;4956974;28;20999;-84
2022/08/26 11:27:58;;;;;;;22.43;9.53;;;28.20;78.90;;;;;;4958003;29;20470;-85
2022/08/26 11:30:44;;;;;;;19.60;9.60;;;28.10;79.20;;;;;;4880142;29;20541;-84
2022/08/26 11:33:31;;;;;;;14.80;9.00;;;28.20;79.30;;;;;;4879057;29;20457;-84
2022/08/26 11:35:58;;;;;;;20.97;7.97;;;28.10;79.30;;;;;;4935079;29;20451;-85
2022/08/26 11:38:28;;;;;;;14.70;7.90;;;28.20;79.30;;;;;;4956852;29;20522;-84
2022/08/26 11:41:06;;;;;;;22.13;10.17;;;28.20;79.20;;;;;;4956729;29;21235;-83
2022/08/26 11:43:36;;;;;;;19.13;8.03;;;28.20;79.20;;;;;;4957575;29;20497;-88
2022/08/26 11:46:07;;;;;;;19.87;9.47;;;28.20;79.20;;;;;;4957463;29;20455;-84
2022/08/26 11:48:35;;;;;;;12.50;7.90;;;28.20;78.80;;;;;;4957667;29;20532;-83
2022/08/26 11:51:06;;;;;;;12.10;8.23;;;28.20;78.90;;;;;;4957097;29;20538;-87
2022/08/26 11:53:35;;;;;;;8.60;6.00;;;28.20;79.20;;;;;;4957305;28;20505;-85
2022/08/26 11:56:07;;;;;;;15.23;8.70;;;28.20;79.00;;;;;;4957292;29;20451;-87
2022/08/26 11:58:41;;;;;;;17.57;8.57;;;28.20;78.60;;;;;;4956677;29;20446;-87
2022/08/26 12:01:09;;;;;;;20.30;8.77;;;28.30;78.50;;;;;;4957211;29;20446;-88
2022/08/26 12:03:40;;;;;;;17.97;8.60;;;28.30;78.40;;;;;;4957107;29;20482;-86
2022/08/26 12:06:16;;;;;;;17.73;8.70;;;28.30;78.30;;;;;;4957168;29;20438;-86
2022/08/26 12:08:44;;;;;;;13.30;7.93;;;28.30;78.20;;;;;;4956829;29;20450;-87
2022/08/26 12:11:23;;;;;;;13.53;7.70;;;28.30;78.30;;;;;;4956372;29;20450;-90
2022/08/26 12:14:00;;;;;;;13.23;8.70;;;28.30;78.30;;;;;;4956645;29;20530;-91
2022/08/26 12:16:29;;;;;;;16.83;9.07;;;28.30;78.10;;;;;;4956858;29;20460;-87
2022/08/26 12:18:56;;;;;;;11.73;7.10;;;28.30;78.10;;;;;;4956725;29;20968;-89
2022/08/26 12:21:26;;;;;;;15.13;8.03;;;28.30;78.20;;;;;;4957018;29;20437;-87
2022/08/26 12:23:54;;;;;;;11.13;7.97;;;28.30;78.20;;;;;;4955946;28;20977;-87
2022/08/26 12:26:25;;;;;;;11.20;8.30;;;28.30;78.10;;;;;;4962982;28;20458;-89
2022/08/26 12:28:56;;;;;;;10.63;7.20;;;28.30;78.20;;;;;;4937250;29;20451;-86
2022/08/26 12:31:31;;;;;;;13.47;7.77;;;28.30;78.20;;;;;;4930104;29;20561;-86
2022/08/26 12:33:59;;;;;;;14.17;7.80;;;28.30;78.20;;;;;;4918238;29;20440;-86
2022/08/26 12:36:30;;;;;;;12.23;7.17;;;28.30;79.10;;;;;;4918591;29;20451;-86
2022/08/26 12:39:04;;;;;;;9.90;6.40;;;28.30;78.10;;;;;;4918533;29;20560;-89
2022/08/26 12:41:39;;;;;;;15.30;8.40;;;28.30;78.20;;;;;;4918030;29;20538;-86
2022/08/26 12:44:06;;;;;;;15.10;7.87;;;28.30;78.00;;;;;;4917857;29;20495;-87
2022/08/26 12:46:34;;;;;;;17.17;7.20;;;28.30;78.10;;;;;;4917956;29;20464;-87
2022/08/26 12:49:02;;;;;;;9.93;6.70;;;28.30;78.10;;;;;;4917961;29;20458;-90
2022/08/26 12:51:33;;;;;;;14.13;7.33;;;28.30;78.20;;;;;;4917916;29;20519;-86
2022/08/26 12:54:05;;;;;;;12.53;7.90;;;28.30;78.10;;;;;;4917999;29;20476;-87
2022/08/26 12:56:37;;;;;;;10.73;7.23;;;28.30;78.10;;;;;;4918060;29;20484;-88
2022/08/26 12:59:21;;;;;;;10.70;7.10;;;28.30;78.20;;;;;;4918320;29;20440;-87
2022/08/26 13:01:50;;;;;;;11.07;7.57;;;28.30;78.10;;;;;;4918113;29;20439;-86
2022/08/26 13:04:38;;;;;;;14.03;7.60;;;28.30;78.10;;;;;;4917829;29;20488;-87
2022/08/26 13:07:20;;;;;;;10.63;6.30;;;28.40;78.10;;;;;;4917983;29;20451;-87
2022/08/26 13:09:47;;;;;;;5.23;4.73;;;28.30;78.10;;;;;;4917973;29;20452;-88
2022/08/26 13:12:24;;;;;;;6.30;5.70;;;28.30;78.50;;;;;;4917335;29;20448;-85
2022/08/26 13:14:52;;;;;;;6.37;4.70;;;28.20;79.10;;;;;;4917864;29;20882;-86
2022/08/26 13:17:21;;;;;;;5.17;4.77;;;28.20;79.40;;;;;;4917670;29;20450;-86
2022/08/26 13:19:47;;;;;;;4.70;4.30;;;28.20;79.40;;;;;;4932328;29;20482;-86
2022/08/26 13:22:23;;;;;;;6.27;4.30;;;28.20;79.20;;;;;;4937169;29;20443;-87
2022/08/26 13:24:53;;;;;;;6.90;4.57;;;28.20;79.20;;;;;;4936425;29;21010;-87
2022/08/26 13:27:22;;;;;;;8.27;4.40;;;28.20;79.20;;;;;;4936452;29;20943;-86
2022/08/26 13:29:50;;;;;;;4.97;4.47;;;28.20;79.10;;;;;;4936302;29;20454;-87
2022/08/26 13:32:19;;;;;;;4.23;3.83;;;28.20;79.10;;;;;;4936341;29;20474;-87
2022/08/26 13:34:49;;;;;;;4.73;3.83;;;28.20;79.10;;;;;;4936103;29;20461;-86
2022/08/26 13:37:16;;;;;;;6.20;4.00;;;28.20;79.20;;;;;;4935883;29;20458;-86
2022/08/26 13:39:42;;;;;;;4.43;3.93;;;28.20;79.10;;;;;;4935854;29;20443;-86
2022/08/26 13:42:09;;;;;;;4.57;4.17;;;28.20;79.10;;;;;;4935925;29;20473;-87
2022/08/26 13:44:37;;;;;;;4.10;3.60;;;28.20;79.10;;;;;;4935701;29;20494;-86